createdAt,value
2019-02-21T00:01:38.727Z,17.13
2019-02-21T00:04:06.485Z,18.13
2019-02-21T00:06:34.134Z,18.13
2019-02-21T00:09:01.885Z,18.37
2019-02-21T00:11:29.495Z,19.00
2019-02-21T00:13:57.240Z,18.23
2019-02-21T00:16:24.934Z,17.53
2019-02-21T00:18:52.718Z,18.40
2019-02-21T00:21:20.450Z,17.03
2019-02-21T00:23:48.161Z,18.10
2019-02-21T00:26:15.897Z,17.97
2019-02-21T00:28:43.518Z,18.13
2019-02-21T00:31:11.323Z,18.67
2019-02-21T00:33:39.076Z,16.67
2019-02-21T00:36:06.771Z,17.80
2019-02-21T00:38:34.517Z,16.27
2019-02-21T00:41:02.205Z,17.67
2019-02-21T00:43:29.873Z,17.70
2019-02-21T00:45:57.623Z,16.53
2019-02-21T00:48:25.306Z,18.17
2019-02-21T00:50:52.952Z,19.47
2019-02-21T00:53:20.593Z,19.13
2019-02-21T00:55:48.320Z,18.73
2019-02-21T00:58:16.221Z,19.70
2019-02-21T01:00:46.785Z,19.63
2019-02-21T01:03:13.265Z,19.73
2019-02-21T01:05:40.986Z,20.27
2019-02-21T01:08:08.821Z,19.67
2019-02-21T01:10:36.603Z,20.27
2019-02-21T01:13:04.558Z,20.33
2019-02-21T01:15:32.268Z,21.23
2019-02-21T01:17:59.987Z,21.10
2019-02-21T01:20:27.671Z,19.83
2019-02-21T01:22:55.393Z,20.03
2019-02-21T01:25:23.124Z,20.93
2019-02-21T01:27:50.785Z,20.87
2019-02-21T01:30:18.877Z,22.80
2019-02-21T01:32:46.583Z,21.17
2019-02-21T01:35:14.302Z,21.07
2019-02-21T01:37:42.044Z,20.53
2019-02-21T01:40:09.773Z,20.77
2019-02-21T01:42:37.524Z,19.87
2019-02-21T01:45:05.395Z,19.93
2019-02-21T01:47:33.126Z,20.13
2019-02-21T01:50:00.868Z,19.47
2019-02-21T01:52:28.572Z,20.17
2019-02-21T01:54:56.343Z,19.40
2019-02-21T01:57:24.035Z,19.77
2019-02-21T01:59:51.751Z,18.93
2019-02-21T02:02:19.532Z,20.07
2019-02-21T02:04:47.216Z,19.70
2019-02-21T02:07:14.975Z,21.17
2019-02-21T02:09:42.687Z,19.83
2019-02-21T02:12:10.689Z,19.60
2019-02-21T02:14:38.428Z,19.47
2019-02-21T02:17:06.067Z,20.00
2019-02-21T02:19:33.796Z,20.30
2019-02-21T02:22:01.481Z,19.57
2019-02-21T02:24:29.158Z,19.77
2019-02-21T02:26:56.838Z,18.67
2019-02-21T02:29:24.472Z,18.17
2019-02-21T02:31:52.133Z,19.40
2019-02-21T02:34:19.880Z,18.20
2019-02-21T02:36:47.642Z,18.80
2019-02-21T02:39:15.366Z,17.70
2019-02-21T02:41:43.088Z,17.20
2019-02-21T02:44:10.825Z,17.57
2019-02-21T02:46:38.637Z,17.67
2019-02-21T02:49:06.328Z,16.97
2019-02-21T02:51:34.070Z,16.60
2019-02-21T02:54:01.721Z,17.90
2019-02-21T02:56:29.640Z,16.53
2019-02-21T02:58:57.372Z,16.87
2019-02-21T03:01:34.337Z,15.77
2019-02-21T03:03:54.590Z,15.60
2019-02-21T03:06:22.639Z,16.43
2019-02-21T03:08:50.375Z,16.67
2019-02-21T03:11:18.202Z,16.50
2019-02-21T03:13:45.926Z,15.70
2019-02-21T03:16:13.600Z,15.50
2019-02-21T03:18:43.097Z,15.83
2019-02-21T03:21:10.792Z,15.57
2019-02-21T03:23:38.470Z,16.50
2019-02-21T03:26:06.195Z,15.80
2019-02-21T03:28:33.840Z,15.03
2019-02-21T03:31:01.510Z,15.53
2019-02-21T03:33:29.349Z,15.67
2019-02-21T03:35:56.993Z,14.70
2019-02-21T03:38:24.711Z,15.17
2019-02-21T03:40:52.423Z,14.87
2019-02-21T03:43:20.114Z,14.87
2019-02-21T03:45:47.825Z,14.07
2019-02-21T03:48:15.523Z,15.47
2019-02-21T03:50:43.215Z,14.53
2019-02-21T03:53:10.916Z,16.13
2019-02-21T03:55:38.656Z,15.20
2019-02-21T03:58:06.326Z,15.33
2019-02-21T04:00:34.122Z,15.47
2019-02-21T04:03:01.821Z,15.60
2019-02-21T04:05:29.572Z,14.77
2019-02-21T04:07:57.327Z,15.07
2019-02-21T04:10:25.055Z,16.03
2019-02-21T04:12:52.762Z,15.33
2019-02-21T04:15:20.421Z,16.10
2019-02-21T04:17:48.193Z,16.17
2019-02-21T04:20:15.947Z,14.77
2019-02-21T04:22:45.550Z,15.87
2019-02-21T04:25:13.250Z,15.40
2019-02-21T04:27:40.911Z,15.17
2019-02-21T04:30:08.603Z,15.43
2019-02-21T04:32:36.367Z,15.27
2019-02-21T04:35:04.052Z,16.13
2019-02-21T04:37:31.738Z,15.63
2019-02-21T04:39:59.406Z,16.73
2019-02-21T04:42:27.121Z,16.73
2019-02-21T04:44:54.880Z,16.30
2019-02-21T04:47:22.536Z,15.37
2019-02-21T04:49:50.273Z,16.13
2019-02-21T04:52:17.921Z,16.90
2019-02-21T04:54:46.208Z,18.33
2019-02-21T04:57:13.944Z,16.90
2019-02-21T04:59:41.654Z,16.67
2019-02-21T05:02:09.415Z,17.10
2019-02-21T05:04:48.888Z,16.87
2019-02-21T05:07:16.601Z,17.23
2019-02-21T05:09:44.590Z,16.97
2019-02-21T05:12:12.305Z,17.00
2019-02-21T05:14:39.951Z,18.87
2019-02-21T05:17:07.714Z,17.83
2019-02-21T05:19:35.418Z,17.87
2019-02-21T05:22:03.187Z,18.50
2019-02-21T05:24:30.885Z,17.77
2019-02-21T05:27:04.926Z,17.57
2019-02-21T05:29:32.686Z,17.77
2019-02-21T05:32:22.944Z,19.80
2019-02-21T05:35:05.931Z,17.90
2019-02-21T05:37:53.131Z,16.90
2019-02-21T05:40:41.949Z,18.90
2019-02-21T05:43:18.723Z,19.73
2019-02-21T05:46:08.924Z,18.20
2019-02-21T05:48:59.348Z,19.23
2019-02-21T05:51:40.962Z,20.10
2019-02-21T05:54:24.174Z,20.07
2019-02-21T05:57:02.888Z,19.43
2019-02-21T05:59:50.083Z,20.73
2019-02-21T06:02:36.250Z,20.00
2019-02-21T06:05:26.680Z,19.73
2019-02-21T06:08:17.000Z,20.37
2019-02-21T06:11:03.784Z,22.67
2019-02-21T06:13:49.541Z,21.33
2019-02-21T06:16:33.097Z,22.17
2019-02-21T06:19:32.364Z,22.73
2019-02-21T06:22:28.485Z,22.23
2019-02-21T06:25:05.253Z,21.67
2019-02-21T06:27:40.414Z,22.10
2019-02-21T06:30:12.386Z,22.33
2019-02-21T06:32:40.800Z,21.30
2019-02-21T06:35:08.907Z,23.50
2019-02-21T06:37:37.880Z,22.97
2019-02-21T06:40:05.904Z,22.23
2019-02-21T06:42:33.616Z,21.87
2019-02-21T06:45:01.254Z,22.87
2019-02-21T06:47:29.016Z,23.37
2019-02-21T06:49:58.661Z,23.93
2019-02-21T06:52:26.250Z,22.97
2019-02-21T06:54:53.919Z,23.77
2019-02-21T06:57:21.667Z,24.13
2019-02-21T06:59:49.432Z,25.17
2019-02-21T07:02:17.217Z,23.90
2019-02-21T07:04:44.942Z,23.60
2019-02-21T07:07:14.449Z,24.10
2019-02-21T07:09:42.096Z,22.90
2019-02-21T07:12:10.647Z,24.30
2019-02-21T07:14:38.482Z,24.93
2019-02-21T07:17:08.392Z,24.07
2019-02-21T07:19:35.679Z,25.07
2019-02-21T07:22:05.968Z,25.27
2019-02-21T07:24:33.326Z,23.67
2019-02-21T07:27:00.987Z,23.77
2019-02-21T07:29:28.693Z,25.47
2019-02-21T07:31:56.462Z,23.83
2019-02-21T07:34:24.257Z,24.93
2019-02-21T07:36:51.968Z,24.27
2019-02-21T07:39:20.887Z,24.47
2019-02-21T07:41:50.044Z,24.73
2019-02-21T07:44:18.024Z,24.70
2019-02-21T07:46:46.339Z,24.73
2019-02-21T07:49:14.305Z,23.97
2019-02-21T07:51:42.035Z,25.27
2019-02-21T07:54:09.889Z,24.33
2019-02-21T07:56:42.087Z,24.97
2019-02-21T07:59:08.505Z,24.93
2019-02-21T08:01:36.210Z,24.40
2019-02-21T08:04:03.946Z,23.50
2019-02-21T08:06:31.643Z,23.10
2019-02-21T08:08:59.391Z,23.33
2019-02-21T08:11:27.110Z,23.30
2019-02-21T08:13:54.811Z,24.90
2019-02-21T08:16:22.745Z,22.27
2019-02-21T08:18:50.725Z,22.40
2019-02-21T08:21:18.828Z,23.17
2019-02-21T08:23:50.512Z,22.40
2019-02-21T08:26:16.674Z,23.00
2019-02-21T08:28:44.602Z,22.23
2019-02-21T08:31:12.540Z,23.07
2019-02-21T08:34:04.323Z,23.23
2019-02-21T08:36:32.139Z,23.03
2019-02-21T08:39:09.327Z,24.17
2019-02-21T08:41:37.133Z,23.70
2019-02-21T08:44:04.839Z,23.50
2019-02-21T08:46:32.613Z,23.63
2019-02-21T08:49:00.399Z,23.67
2019-02-21T08:51:28.160Z,24.63
2019-02-21T08:53:57.015Z,24.87
2019-02-21T08:56:24.738Z,24.57
2019-02-21T08:58:52.546Z,25.27
2019-02-21T09:01:20.261Z,24.80
2019-02-21T09:03:48.071Z,24.97
2019-02-21T09:06:16.290Z,25.90
2019-02-21T09:08:44.026Z,25.07
2019-02-21T09:11:11.880Z,24.40
2019-02-21T09:13:41.595Z,26.00
2019-02-21T09:16:09.111Z,26.17
2019-02-21T09:18:37.182Z,26.20
2019-02-21T09:21:05.237Z,26.13
2019-02-21T09:23:33.025Z,25.57
2019-02-21T09:26:01.095Z,26.97
2019-02-21T09:28:29.034Z,26.50
2019-02-21T09:30:56.808Z,26.97
2019-02-21T09:33:24.535Z,28.07
2019-02-21T09:35:52.344Z,27.77
2019-02-21T09:38:20.020Z,28.53
2019-02-21T09:40:48.045Z,27.03
2019-02-21T09:43:15.892Z,28.43
2019-02-21T09:45:43.559Z,28.03
2019-02-21T09:48:12.038Z,27.83
2019-02-21T09:50:39.914Z,27.77
2019-02-21T09:53:08.141Z,29.33
2019-02-21T09:55:35.836Z,30.87
2019-02-21T09:58:03.551Z,29.40
2019-02-21T10:00:31.277Z,30.43
2019-02-21T10:02:59.209Z,29.73
2019-02-21T10:05:27.184Z,29.70
2019-02-21T10:07:55.301Z,30.90
2019-02-21T10:10:23.380Z,30.57
2019-02-21T10:12:51.243Z,31.50
2019-02-21T10:15:19.021Z,31.40
2019-02-21T10:17:46.740Z,28.77
2019-02-21T10:20:16.237Z,29.03
2019-02-21T10:22:43.980Z,28.10
2019-02-21T10:25:17.155Z,30.93
2019-02-21T10:27:44.875Z,29.13
2019-02-21T10:30:13.687Z,28.03
2019-02-21T10:32:41.380Z,28.97
2019-02-21T10:35:09.234Z,29.30
2019-02-21T10:37:36.963Z,28.80
2019-02-21T10:40:05.743Z,28.40
2019-02-21T10:42:33.457Z,27.60
2019-02-21T10:45:03.439Z,25.63
2019-02-21T10:47:30.607Z,27.37
2019-02-21T10:49:58.357Z,27.07
2019-02-21T10:52:26.122Z,26.70
2019-02-21T10:54:53.855Z,26.60
2019-02-21T10:57:21.604Z,27.93
2019-02-21T10:59:49.269Z,28.20
2019-02-21T11:02:16.952Z,26.57
2019-02-21T11:04:54.372Z,25.93
2019-02-21T11:07:16.050Z,27.23
2019-02-21T11:09:43.803Z,26.07
2019-02-21T11:12:11.527Z,26.23
2019-02-21T11:14:47.174Z,26.10
2019-02-21T11:17:09.185Z,26.40
2019-02-21T11:19:36.843Z,25.43
2019-02-21T11:22:04.576Z,26.73
2019-02-21T11:24:50.901Z,24.80
2019-02-21T11:27:37.255Z,22.87
2019-02-21T11:30:06.621Z,22.93
2019-02-21T11:32:34.369Z,20.77
2019-02-21T11:35:06.248Z,18.50
2019-02-21T11:37:42.373Z,17.27
2019-02-21T11:40:01.182Z,18.13
2019-02-21T11:42:28.904Z,18.67
2019-02-21T11:44:56.627Z,18.53
2019-02-21T11:47:24.765Z,18.30
2019-02-21T11:49:52.494Z,17.47
2019-02-21T11:52:20.249Z,17.57
2019-02-21T11:54:47.950Z,18.50
2019-02-21T11:57:15.628Z,16.37
2019-02-21T11:59:43.339Z,18.63
2019-02-21T12:02:11.046Z,17.03
2019-02-21T12:04:38.744Z,17.70
2019-02-21T12:07:06.484Z,15.83
2019-02-21T12:09:34.152Z,16.77
2019-02-21T12:12:01.902Z,16.17
2019-02-21T12:14:29.600Z,17.47
2019-02-21T12:16:57.334Z,17.33
2019-02-21T12:19:25.132Z,15.93
2019-02-21T12:21:59.003Z,16.43
2019-02-21T12:24:22.319Z,15.30
2019-02-21T12:26:50.121Z,16.57
2019-02-21T12:29:17.868Z,15.43
2019-02-21T12:31:45.599Z,16.27
2019-02-21T12:34:13.285Z,16.17
2019-02-21T12:36:41.056Z,16.40
2019-02-21T12:39:08.717Z,15.90
2019-02-21T12:41:36.844Z,15.33
2019-02-21T12:44:04.603Z,14.70
2019-02-21T12:46:32.301Z,14.50
2019-02-21T12:49:00.053Z,12.33
2019-02-21T12:51:27.763Z,13.33
2019-02-21T12:53:57.381Z,13.93
2019-02-21T12:56:25.014Z,13.67
2019-02-21T12:58:52.740Z,14.10
2019-02-21T13:01:20.508Z,14.97
2019-02-21T13:03:48.185Z,15.17
2019-02-21T13:06:15.890Z,14.50
2019-02-21T13:08:43.669Z,14.87
2019-02-21T13:11:11.522Z,15.23
2019-02-21T13:13:39.232Z,16.63
2019-02-21T13:16:06.868Z,16.13
2019-02-21T13:18:34.580Z,16.20
2019-02-21T13:21:02.346Z,18.47
2019-02-21T13:23:31.256Z,17.83
2019-02-21T13:25:58.931Z,18.77
2019-02-21T13:28:26.653Z,18.87
2019-02-21T13:30:54.346Z,17.53
2019-02-21T13:33:22.376Z,17.63
2019-02-21T13:35:59.348Z,18.83
2019-02-21T13:38:27.436Z,17.13
2019-02-21T13:40:55.582Z,17.40
2019-02-21T13:43:23.911Z,16.93
2019-02-21T13:45:51.952Z,17.97
2019-02-21T13:48:20.134Z,16.77
2019-02-21T13:50:48.276Z,15.40
2019-02-21T13:53:16.293Z,15.97
2019-02-21T13:55:44.229Z,16.63
2019-02-21T13:58:12.406Z,16.07
2019-02-21T14:00:40.555Z,15.83
2019-02-21T14:03:08.345Z,16.87
2019-02-21T14:05:36.064Z,16.70
2019-02-21T14:08:03.851Z,17.43
2019-02-21T14:10:31.581Z,16.77
2019-02-21T14:12:59.325Z,16.37
2019-02-21T14:15:27.060Z,16.33
2019-02-21T14:17:54.810Z,17.43
2019-02-21T14:20:22.551Z,18.10
2019-02-21T14:22:50.374Z,17.27
2019-02-21T14:25:18.037Z,17.30
2019-02-21T14:27:45.759Z,17.03
2019-02-21T14:30:16.031Z,19.03
2019-02-21T14:32:44.185Z,17.13
2019-02-21T14:35:12.040Z,18.27
2019-02-21T14:37:40.051Z,18.77
2019-02-21T14:40:10.721Z,18.17
2019-02-21T14:42:38.959Z,17.63
2019-02-21T14:45:12.079Z,18.97
2019-02-21T14:47:38.729Z,17.07
2019-02-21T14:50:07.766Z,17.67
2019-02-21T14:52:35.797Z,17.70
2019-02-21T14:55:04.134Z,18.83
2019-02-21T14:57:40.593Z,18.50
2019-02-21T15:00:02.175Z,18.53
2019-02-21T15:02:29.797Z,18.40
2019-02-21T15:04:57.525Z,19.60
2019-02-21T15:07:26.333Z,19.13
2019-02-21T15:09:54.359Z,18.97
2019-02-21T15:12:22.059Z,19.00
2019-02-21T15:14:49.765Z,19.00
2019-02-21T15:17:18.610Z,19.10
2019-02-21T15:19:46.628Z,18.87
2019-02-21T15:22:16.111Z,19.87
2019-02-21T15:24:43.873Z,18.33
2019-02-21T15:27:11.748Z,18.50
2019-02-21T15:29:41.643Z,19.47
2019-02-21T15:32:11.292Z,18.80
2019-02-21T15:34:38.999Z,18.07
2019-02-21T15:37:06.988Z,18.97
2019-02-21T15:39:35.017Z,18.67
2019-02-21T15:42:03.053Z,19.20
2019-02-21T15:44:30.784Z,18.53
2019-02-21T15:46:58.818Z,17.73
2019-02-21T15:49:27.794Z,18.50
2019-02-21T15:51:55.757Z,19.60
2019-02-21T15:54:23.630Z,19.90
2019-02-21T15:56:51.297Z,18.47
2019-02-21T15:59:19.079Z,18.17
2019-02-21T16:01:47.865Z,20.00
2019-02-21T16:04:15.816Z,20.50
2019-02-21T16:06:51.059Z,19.07
2019-02-21T16:09:16.541Z,19.53
2019-02-21T16:11:43.019Z,20.17
2019-02-21T16:14:10.759Z,18.63
2019-02-21T16:16:38.503Z,20.10
2019-02-21T16:19:06.324Z,19.93
2019-02-21T16:21:34.014Z,20.37
2019-02-21T16:24:01.857Z,19.67
2019-02-21T16:26:29.572Z,20.13
2019-02-21T16:28:57.299Z,20.10
2019-02-21T16:31:25.012Z,19.87
2019-02-21T16:33:52.783Z,20.37
2019-02-21T16:36:20.527Z,21.33
2019-02-21T16:38:48.266Z,23.07
2019-02-21T16:41:16.017Z,21.97
2019-02-21T16:43:44.414Z,19.47
2019-02-21T16:46:12.190Z,19.60
2019-02-21T16:48:39.930Z,19.80
2019-02-21T16:51:07.776Z,18.60
2019-02-21T16:53:35.470Z,19.87
2019-02-21T16:56:03.176Z,18.00
2019-02-21T16:58:30.905Z,18.50
2019-02-21T17:00:58.649Z,18.50
2019-02-21T17:03:26.369Z,18.70
2019-02-21T17:05:54.240Z,18.73
2019-02-21T17:08:21.987Z,18.87
2019-02-21T17:10:49.767Z,19.57
2019-02-21T17:13:17.446Z,19.40
2019-02-21T17:15:45.139Z,20.33
2019-02-21T17:18:12.823Z,20.87
2019-02-21T17:20:40.678Z,21.53
2019-02-21T17:23:08.496Z,20.77
2019-02-21T17:25:36.267Z,21.53
2019-02-21T17:28:04.281Z,20.97
2019-02-21T17:30:32.254Z,20.67
2019-02-21T17:33:00.296Z,21.73
2019-02-21T17:35:28.045Z,21.27
2019-02-21T17:37:55.702Z,22.67
2019-02-21T17:40:23.481Z,22.83
2019-02-21T17:42:51.344Z,24.13
2019-02-21T17:45:19.014Z,23.73
2019-02-21T17:47:46.697Z,21.53
2019-02-21T17:50:16.878Z,21.97
2019-02-21T17:52:44.800Z,20.73
2019-02-21T17:55:12.896Z,21.83
2019-02-21T17:57:40.593Z,20.80
2019-02-21T18:00:13.640Z,22.63
2019-02-21T18:02:41.354Z,21.97
2019-02-21T18:05:09.515Z,21.37
2019-02-21T18:07:37.245Z,22.00
2019-02-21T18:10:06.599Z,22.03
2019-02-21T18:12:34.310Z,24.53
2019-02-21T18:15:01.983Z,24.87
2019-02-21T18:17:29.701Z,24.70
2019-02-21T18:19:57.566Z,24.67
2019-02-21T18:22:25.267Z,25.10
2019-02-21T18:24:53.019Z,25.37
2019-02-21T18:27:20.698Z,24.23
2019-02-21T18:29:48.472Z,24.97
2019-02-21T18:32:16.187Z,25.70
2019-02-21T18:34:43.937Z,25.57
2019-02-21T18:37:11.686Z,25.90
2019-02-21T18:39:39.527Z,27.40
2019-02-21T18:42:07.240Z,26.47
2019-02-21T18:44:34.935Z,24.93
2019-02-21T18:47:02.794Z,26.60
2019-02-21T18:49:30.502Z,27.67
2019-02-21T18:51:58.250Z,26.67
2019-02-21T18:54:25.932Z,26.63
2019-02-21T18:56:53.636Z,26.83
2019-02-21T18:59:31.119Z,26.73
2019-02-21T19:01:50.851Z,27.33
2019-02-21T19:04:18.544Z,27.37
2019-02-21T19:06:46.301Z,27.57
2019-02-21T19:09:14.069Z,27.57
2019-02-21T19:11:41.828Z,27.60
2019-02-21T19:14:09.568Z,27.53
2019-02-21T19:16:37.360Z,27.80
2019-02-21T19:19:05.055Z,26.47
2019-02-21T19:21:32.790Z,25.63
2019-02-21T19:24:00.538Z,26.37
2019-02-21T19:26:28.270Z,26.20
2019-02-21T19:28:55.950Z,25.50
2019-02-21T19:31:23.797Z,24.20
2019-02-21T19:33:51.526Z,24.20
2019-02-21T19:36:19.410Z,24.13
2019-02-21T19:38:47.073Z,23.33
2019-02-21T19:41:14.888Z,22.80
2019-02-21T19:43:42.617Z,22.17
2019-02-21T19:46:10.386Z,22.63
2019-02-21T19:48:38.095Z,22.80
2019-02-21T19:51:05.953Z,23.83
2019-02-21T19:53:33.699Z,22.03
2019-02-21T19:56:01.572Z,22.43
2019-02-21T19:58:32.783Z,25.10
2019-02-21T20:01:00.341Z,24.23
2019-02-21T20:03:30.328Z,24.53
2019-02-21T20:05:58.434Z,24.70
2019-02-21T20:08:26.148Z,24.60
2019-02-21T20:10:54.468Z,24.70
2019-02-21T20:13:22.593Z,24.97
2019-02-21T20:15:50.493Z,26.73
2019-02-21T20:18:18.272Z,25.40
2019-02-21T20:20:46.010Z,25.70
2019-02-21T20:23:13.703Z,26.87
2019-02-21T20:25:41.561Z,27.90
2019-02-21T20:28:09.400Z,27.70
2019-02-21T20:30:37.301Z,27.50
2019-02-21T20:33:05.156Z,26.43
2019-02-21T20:35:33.958Z,26.13
2019-02-21T20:38:01.688Z,27.87
2019-02-21T20:40:31.284Z,27.30
2019-02-21T20:42:59.155Z,26.57
2019-02-21T20:45:27.973Z,26.77
2019-02-21T20:47:55.717Z,26.70
2019-02-21T20:50:23.480Z,28.30
2019-02-21T20:52:51.305Z,27.73
2019-02-21T20:55:19.085Z,28.40
2019-02-21T20:57:46.924Z,28.87
2019-02-21T21:00:15.245Z,31.00
2019-02-21T21:02:45.458Z,30.10
2019-02-21T21:05:13.608Z,30.23
2019-02-21T21:07:42.552Z,29.80
2019-02-21T21:10:13.910Z,33.80
2019-02-21T21:12:41.843Z,34.57
2019-02-21T21:15:10.268Z,36.43
2019-02-21T21:17:38.363Z,36.53
2019-02-21T21:20:15.842Z,36.43
2019-02-21T21:22:37.544Z,38.10
2019-02-21T21:25:06.952Z,40.37
2019-02-21T21:27:34.880Z,41.30
2019-02-21T21:30:05.443Z,42.87
2019-02-21T21:32:33.432Z,43.43
2019-02-21T21:35:01.205Z,44.73
2019-02-21T21:37:28.955Z,47.07
2019-02-21T21:39:57.817Z,44.07
2019-02-21T21:42:25.650Z,45.07
2019-02-21T21:44:54.997Z,44.53
2019-02-21T21:47:22.799Z,44.53
2019-02-21T21:49:57.704Z,46.30
2019-02-21T21:52:25.568Z,45.47
2019-02-21T21:54:53.310Z,47.67
2019-02-21T21:57:22.719Z,48.83
2019-02-21T21:59:52.431Z,50.00
2019-02-21T22:02:20.184Z,52.20
2019-02-21T22:04:47.903Z,51.60
2019-02-21T22:07:16.384Z,52.17
2019-02-21T22:09:45.946Z,52.47
2019-02-21T22:12:13.626Z,52.70
2019-02-21T22:14:43.227Z,52.67
2019-02-21T22:17:11.026Z,52.37
2019-02-21T22:19:39.068Z,52.60
2019-02-21T22:22:06.919Z,52.03
2019-02-21T22:24:34.686Z,53.10
2019-02-21T22:27:12.422Z,52.23
2019-02-21T22:29:40.145Z,50.67
2019-02-21T22:32:08.338Z,53.10
2019-02-21T22:34:36.492Z,53.47
2019-02-21T22:37:05.457Z,51.60
2019-02-21T22:39:33.180Z,50.43
2019-02-21T22:42:00.987Z,52.97
2019-02-21T22:44:28.840Z,52.33
2019-02-21T22:46:56.608Z,53.37
2019-02-21T22:49:24.366Z,52.47
2019-02-21T22:51:52.500Z,53.87
2019-02-21T22:54:20.621Z,55.80
2019-02-21T22:56:48.423Z,54.60
2019-02-21T22:59:16.330Z,55.57
2019-02-21T23:01:48.067Z,56.20
2019-02-21T23:05:06.943Z,58.20
2019-02-21T23:07:51.440Z,58.37
2019-02-21T23:10:19.212Z,58.23
2019-02-21T23:12:49.337Z,59.53
2019-02-21T23:15:18.355Z,58.77
2019-02-21T23:17:48.450Z,58.10
2019-02-21T23:20:16.403Z,58.43
2019-02-21T23:22:44.155Z,56.80
2019-02-21T23:25:11.969Z,57.83
2019-02-21T23:27:39.674Z,56.80
2019-02-21T23:30:10.561Z,59.20
2019-02-21T23:32:38.371Z,58.93
2019-02-21T23:35:06.982Z,59.37
2019-02-21T23:37:36.776Z,59.67
2019-02-21T23:40:04.958Z,58.73
2019-02-21T23:42:32.748Z,57.13
2019-02-21T23:45:00.501Z,57.63
2019-02-21T23:47:28.499Z,59.30
2019-02-21T23:49:56.346Z,56.87
2019-02-21T23:52:25.319Z,59.27
2019-02-21T23:54:54.379Z,59.17
2019-02-21T23:57:22.165Z,59.60
2019-02-21T23:59:49.900Z,58.93
